You are not logged in, Click here to log in
東京国際空港(羽田)HND / RJTT 日本東京都大田區
ICAO: RJTT Country: 日本東京都大田區
Latitude: 35.5494 Longitude: 139.78
Total Arrivals: 111 Total Departures: 118
Latest Arrival: JL98 (RCSS-RJTT)Mori. Yang Latest Departure: AF293 (RJTT-LFPG)Mori. Yang
Scenery: http://forums.x-plane.org/index.php?/files/file/37241-rjtt-tokyo-haneda-airport/
METAR : RJTT 190330Z 06008KT 9999 FEW030 SCT060 BKN/// 11/M02 Q1024 BECMG 08006KT RMK 1CU030 4SC060 A3026

東京国際空港(羽田)HND

You are accessing this site from IP address 35.175.113.29. Virtual Airline. CMS by phpVMS.Website designed by Zumeweb and edited by Theo Bearman.
There is 0 User(s) Online: | and 5 Guest(s) Online.
All information on this site is for fight simulation purposes only. This site is for flight logging for pilots of Virtual Airline&模擬飛行論壇 FlySim only.